BIE weather

Beatrice Municipal Airport
Beatrice, Nebraska, United States

Public forecast

Using degrees Fahrenheit for public forecast. Weather courtesy of forecast.io.

METAR (pilot weather report)

Retrieved 2019/09/20 17:35 UTC (0 seconds ago):

KBIE 201735Z AUTO 14013KT 10SM CLR 29/20 A2997 RMK AO2 T02860203

TAF (pilot weather forecast)

Closest forecast is Lincoln Airport, 33.0 nm (61.1 km) N. Retrieved 2019/09/20 12:22 UTC (5 hours ago):

TAF KLNK 201120Z 2012/2112 16009KT P6SM SCT100 BKN250 FM201500 17012KT P6SM SCT040 BKN100 FM201800 16014G22KT P6SM SCT040 BKN250 FM210200 16011KT P6SM BKN025 PROB30 2105/2109 4SM TSRA BR OVC009CB FM210900 18010KT P6SM VCSH OVC015